Time;durP1;ratioP1;P1;durP2;ratioP2;P2;SDS_P1;SDS_P2;PMS_P1;PMS_P2;Temp;Humidity;BMP_temperature;BMP_pressure;BME280_temperature;BME280_humidity;BME280_pressure;Samples;Min_cycle;Max_cycle;Signal;HPM_P1;HPM_P2
2022/08/09 00:00:08;;;;;;;0.80;0.80;;;23.10;50.40;;;;;;4922036;29;20115;-88
2022/08/09 00:02:37;;;;;;;0.93;0.80;;;23.10;50.40;;;;;;4936425;29;20028;-88
2022/08/09 00:05:04;;;;;;;1.25;1.00;;;23.00;50.40;;;;;;4937799;29;20492;-89
2022/08/09 00:07:30;;;;;;;0.70;0.70;;;23.00;50.50;;;;;;4920994;29;20147;-88
2022/08/09 00:09:56;;;;;;;0.85;0.80;;;23.00;50.50;;;;;;4938811;29;20036;-88
2022/08/09 00:12:22;;;;;;;1.42;1.00;;;23.00;50.50;;;;;;4908540;29;20087;-88
2022/08/09 00:14:48;;;;;;;1.20;1.00;;;22.90;50.50;;;;;;4928160;29;20078;-87
2022/08/09 00:17:14;;;;;;;1.45;0.90;;;22.90;50.60;;;;;;4934779;29;20139;-87
2022/08/09 00:19:39;;;;;;;0.93;0.82;;;22.90;50.60;;;;;;4932955;29;20039;-88
2022/08/09 00:22:05;;;;;;;1.77;1.20;;;22.90;50.70;;;;;;4944237;29;20090;-87
2022/08/09 00:24:31;;;;;;;0.80;0.80;;;22.80;50.60;;;;;;4927391;29;20036;-88
2022/08/09 00:26:59;;;;;;;1.13;0.90;;;22.80;50.70;;;;;;4926769;29;20055;-88
2022/08/09 00:29:28;;;;;;;1.02;0.88;;;22.80;50.70;;;;;;4944334;29;20058;-87
2022/08/09 00:31:54;;;;;;;0.80;0.73;;;22.80;50.80;;;;;;4948351;29;20130;-87
2022/08/09 00:34:20;;;;;;;0.70;0.70;;;22.80;50.80;;;;;;4948862;29;20066;-84
2022/08/09 00:36:49;;;;;;;0.90;0.90;;;22.80;50.80;;;;;;4952543;29;20039;-83
2022/08/09 00:44:53;;;;;;;1.00;0.90;;;22.70;50.90;;;;;;2668668;22;20046;-89
2022/08/09 00:47:20;;;;;;;2.03;1.08;;;22.70;50.90;;;;;;4971166;28;20054;-86
2022/08/09 00:49:46;;;;;;;1.45;0.82;;;22.60;50.90;;;;;;4961971;28;20030;-88
2022/08/09 00:52:11;;;;;;;1.27;1.00;;;22.60;51.00;;;;;;4973006;28;20033;-88
2022/08/09 00:54:37;;;;;;;0.88;0.88;;;22.60;51.00;;;;;;4990425;28;20233;-88
2022/08/09 00:57:04;;;;;;;0.90;0.90;;;22.60;51.00;;;;;;4964955;28;20041;-88
2022/08/09 00:59:31;;;;;;;1.10;1.00;;;22.50;51.00;;;;;;4980653;28;20030;-88
2022/08/09 01:02:00;;;;;;;1.40;0.98;;;22.50;51.20;;;;;;4963220;28;20030;-88
2022/08/09 01:04:46;;;;;;;1.15;1.00;;;22.50;51.20;;;;;;4971276;28;20042;-87
2022/08/09 01:07:20;;;;;;;1.92;1.25;;;22.50;51.30;;;;;;4979546;28;20039;-88
2022/08/09 01:10:17;;;;;;;1.00;0.90;;;22.50;51.20;;;;;;4975056;28;20030;-88
2022/08/09 01:13:03;;;;;;;1.15;1.00;;;22.40;51.40;;;;;;4977165;28;20086;-88
2022/08/09 01:15:37;;;;;;;0.80;0.80;;;22.40;51.40;;;;;;5003604;28;20046;-88
2022/08/09 01:18:18;;;;;;;1.13;1.00;;;22.40;51.40;;;;;;4978844;28;20018;-89
2022/08/09 01:21:16;;;;;;;1.17;1.08;;;22.30;51.50;;;;;;4978411;28;20109;-87
2022/08/09 01:24:01;;;;;;;1.10;1.00;;;22.30;51.60;;;;;;4976398;28;20126;-86
2022/08/09 01:26:39;;;;;;;1.10;1.00;;;22.30;51.50;;;;;;5000189;28;20027;-88
2022/08/09 01:29:08;;;;;;;1.27;1.00;;;22.30;51.50;;;;;;4965187;28;20080;-89
2022/08/09 01:31:36;;;;;;;1.10;1.00;;;22.30;51.50;;;;;;4973337;28;20030;-87
2022/08/09 01:34:04;;;;;;;0.82;0.82;;;22.20;51.50;;;;;;4980210;28;20125;-87
2022/08/09 01:36:32;;;;;;;0.80;0.80;;;22.20;51.60;;;;;;4995379;28;20062;-88
2022/08/09 01:39:00;;;;;;;1.20;1.10;;;22.20;51.60;;;;;;4962703;28;20026;-88
2022/08/09 01:41:31;;;;;;;1.40;1.00;;;22.20;51.60;;;;;;4955915;28;20466;-87
2022/08/09 01:44:03;;;;;;;1.63;1.08;;;22.20;51.70;;;;;;4966894;28;20109;-88
2022/08/09 01:46:32;;;;;;;3.25;1.02;;;22.10;51.60;;;;;;4992132;28;20069;-88
2022/08/09 01:49:02;;;;;;;1.48;1.10;;;22.10;52.30;;;;;;5013453;28;20479;-88
2022/08/09 01:51:29;;;;;;;0.90;0.90;;;22.10;51.70;;;;;;4987430;28;20048;-87
2022/08/09 01:53:57;;;;;;;1.23;1.10;;;22.10;51.70;;;;;;4985300;28;20033;-86
2022/08/09 01:56:26;;;;;;;1.25;1.00;;;22.10;51.70;;;;;;4983667;28;20010;-86
2022/08/09 01:58:54;;;;;;;1.33;1.20;;;22.10;51.80;;;;;;5007531;28;20356;-86
2022/08/09 02:01:21;;;;;;;1.20;1.10;;;22.10;51.80;;;;;;4982697;28;20039;-87
2022/08/09 02:03:48;;;;;;;0.90;0.90;;;22.00;51.80;;;;;;4976845;28;20651;-88
2022/08/09 02:06:16;;;;;;;0.90;0.90;;;22.00;51.90;;;;;;4989035;28;20033;-88
2022/08/09 02:08:44;;;;;;;2.33;1.30;;;21.90;51.80;;;;;;4993405;28;20083;-88
2022/08/09 02:11:12;;;;;;;1.65;1.20;;;21.90;51.90;;;;;;5001714;28;20113;-88
2022/08/09 02:13:39;;;;;;;1.27;1.00;;;21.90;51.90;;;;;;4976441;28;20025;-88
2022/08/09 02:16:07;;;;;;;1.55;1.20;;;21.90;51.90;;;;;;4999865;28;20049;-86
2022/08/09 02:18:36;;;;;;;1.65;1.10;;;21.90;52.00;;;;;;4975131;28;20034;-88
2022/08/09 02:21:06;;;;;;;1.45;0.95;;;21.80;52.00;;;;;;4994036;28;20090;-88
2022/08/09 02:23:40;;;;;;;2.03;1.20;;;21.80;52.00;;;;;;4997191;28;20021;-87
2022/08/09 02:26:08;;;;;;;1.03;1.03;;;21.80;52.10;;;;;;4968684;28;20650;-87
2022/08/09 02:28:40;;;;;;;1.20;1.00;;;21.80;52.10;;;;;;5008340;28;20109;-87
2022/08/09 02:31:25;;;;;;;1.48;1.25;;;21.80;52.10;;;;;;4996425;28;20104;-87
2022/08/09 02:33:55;;;;;;;1.38;1.10;;;21.70;52.20;;;;;;4996855;28;20022;-88
2022/08/09 02:36:33;;;;;;;1.10;1.00;;;21.70;52.20;;;;;;5012867;28;20070;-87
2022/08/09 02:39:09;;;;;;;1.77;1.08;;;21.70;52.30;;;;;;4984946;28;20155;-88
2022/08/09 02:41:44;;;;;;;1.92;1.20;;;21.70;52.40;;;;;;4978524;28;20096;-87
2022/08/09 02:44:21;;;;;;;1.45;1.10;;;21.60;52.30;;;;;;4996831;28;20163;-87
2022/08/09 02:46:51;;;;;;;1.20;1.10;;;21.60;52.40;;;;;;4983137;28;20113;-87
2022/08/09 02:49:18;;;;;;;1.20;1.10;;;21.60;52.40;;;;;;4994528;28;20026;-88
2022/08/09 02:51:48;;;;;;;1.20;1.10;;;21.60;52.50;;;;;;5011334;28;20026;-88
2022/08/09 02:54:16;;;;;;;1.50;1.13;;;21.60;52.50;;;;;;4984583;28;20026;-88
2022/08/09 02:56:45;;;;;;;1.65;1.08;;;21.60;52.60;;;;;;4996806;28;20040;-88
2022/08/09 02:59:13;;;;;;;1.30;1.15;;;21.50;52.60;;;;;;5015359;28;20026;-89
2022/08/09 03:01:41;;;;;;;1.33;1.23;;;21.50;52.60;;;;;;4986987;28;20081;-89
2022/08/09 03:04:08;;;;;;;1.05;1.00;;;21.50;52.70;;;;;;4962538;28;20038;-86
2022/08/09 03:06:36;;;;;;;1.20;1.10;;;21.50;52.70;;;;;;4975510;28;20060;-87
2022/08/09 03:09:03;;;;;;;1.40;1.30;;;21.50;52.80;;;;;;4992742;28;20034;-87
2022/08/09 03:11:31;;;;;;;1.30;1.20;;;21.50;52.80;;;;;;4986469;28;20134;-87
2022/08/09 03:13:57;;;;;;;1.30;1.20;;;21.40;52.80;;;;;;4990386;28;20247;-87
2022/08/09 03:16:23;;;;;;;1.45;1.05;;;21.40;52.80;;;;;;4990217;28;20385;-87
2022/08/09 03:18:49;;;;;;;1.65;1.20;;;21.40;52.90;;;;;;4986970;28;20033;-86
2022/08/09 03:21:18;;;;;;;0.90;0.90;;;21.40;52.90;;;;;;4979950;28;20044;-88
2022/08/09 03:23:45;;;;;;;1.90;1.10;;;21.40;53.00;;;;;;4992414;28;20509;-88
2022/08/09 03:26:15;;;;;;;1.23;1.00;;;21.30;52.90;;;;;;4970078;28;20034;-87
2022/08/09 03:28:42;;;;;;;1.45;1.25;;;21.30;53.00;;;;;;4972194;28;20042;-87
2022/08/09 03:31:09;;;;;;;1.67;1.20;;;21.30;53.00;;;;;;4973093;28;20022;-87
2022/08/09 03:33:37;;;;;;;1.63;1.15;;;21.30;53.00;;;;;;4987232;28;20026;-87
2022/08/09 03:36:06;;;;;;;1.27;1.13;;;21.30;53.10;;;;;;4982144;28;20040;-87
2022/08/09 03:38:33;;;;;;;1.00;1.00;;;21.30;53.10;;;;;;4977803;28;20633;-85
2022/08/09 03:40:59;;;;;;;2.05;1.20;;;21.20;53.10;;;;;;4971915;28;20053;-88
2022/08/09 03:43:26;;;;;;;1.00;1.00;;;21.20;53.10;;;;;;4989048;28;20064;-88
2022/08/09 03:45:52;;;;;;;1.40;1.30;;;21.20;53.20;;;;;;4966468;28;20054;-88
2022/08/09 03:48:21;;;;;;;1.20;1.10;;;21.20;53.20;;;;;;5004572;28;20037;-87
2022/08/09 03:50:48;;;;;;;1.25;1.15;;;21.20;53.30;;;;;;4992683;28;20037;-86
2022/08/09 03:53:16;;;;;;;1.48;1.38;;;21.10;53.20;;;;;;4964232;28;20518;-87
2022/08/09 03:55:41;;;;;;;1.30;1.20;;;21.10;53.30;;;;;;4996372;28;20040;-88
2022/08/09 03:58:07;;;;;;;1.38;1.15;;;21.10;54.00;;;;;;4967774;28;20362;-85
2022/08/09 04:00:33;;;;;;;1.67;1.10;;;21.10;53.30;;;;;;4973432;28;20033;-87
2022/08/09 04:03:00;;;;;;;1.25;1.15;;;21.10;53.40;;;;;;4990571;28;20041;-88
2022/08/09 04:05:26;;;;;;;1.88;1.30;;;21.10;53.40;;;;;;4996250;28;20062;-87
2022/08/09 04:07:52;;;;;;;1.50;1.30;;;21.10;53.50;;;;;;4995434;28;20521;-87
2022/08/09 04:10:21;;;;;;;1.30;1.20;;;21.00;53.40;;;;;;4976066;28;20030;-88
2022/08/09 04:12:51;;;;;;;1.20;1.10;;;21.00;54.10;;;;;;4988261;28;20032;-87
2022/08/09 04:15:20;;;;;;;1.20;1.10;;;21.00;53.50;;;;;;4981373;28;20025;-87
2022/08/09 04:17:46;;;;;;;1.50;1.40;;;21.00;53.60;;;;;;5010494;28;20034;-88
2022/08/09 04:20:13;;;;;;;1.88;1.40;;;21.00;53.60;;;;;;4976835;28;20080;-88
2022/08/09 04:22:39;;;;;;;1.40;1.30;;;20.90;53.60;;;;;;4991044;28;20018;-89
2022/08/09 04:25:06;;;;;;;1.35;1.20;;;20.90;53.70;;;;;;4997531;28;20033;-87
2022/08/09 04:27:32;;;;;;;1.58;1.30;;;20.90;53.70;;;;;;4975397;28;20042;-85
2022/08/09 04:29:58;;;;;;;1.30;1.20;;;20.90;53.70;;;;;;4980842;28;20088;-89
2022/08/09 04:32:27;;;;;;;1.40;1.30;;;20.90;53.80;;;;;;4974435;28;20482;-87
2022/08/09 04:34:53;;;;;;;1.45;1.30;;;20.90;53.80;;;;;;5009798;28;20045;-88
2022/08/09 04:37:19;;;;;;;1.83;1.42;;;20.90;53.80;;;;;;4981262;28;20041;-86
2022/08/09 04:39:45;;;;;;;1.50;1.40;;;20.80;53.80;;;;;;4994496;28;20381;-88
2022/08/09 04:42:11;;;;;;;1.30;1.20;;;20.80;53.80;;;;;;5009660;28;20160;-86
2022/08/09 04:44:37;;;;;;;1.55;1.40;;;20.80;53.90;;;;;;4958528;28;1127413;-88
2022/08/09 04:47:03;;;;;;;1.40;1.30;;;20.80;53.90;;;;;;5015471;28;20038;-88
2022/08/09 04:49:32;;;;;;;1.55;1.45;;;20.80;54.00;;;;;;4998713;28;20392;-88
2022/08/09 04:51:58;;;;;;;2.45;1.52;;;20.80;54.00;;;;;;4977131;28;20034;-89
2022/08/09 04:54:24;;;;;;;1.83;1.42;;;20.70;54.00;;;;;;4991579;28;20125;-86
2022/08/09 04:56:50;;;;;;;1.88;1.50;;;20.70;54.10;;;;;;4979476;28;20161;-88
2022/08/09 04:59:15;;;;;;;2.13;1.40;;;20.70;54.10;;;;;;4961274;28;20029;-88
2022/08/09 05:01:41;;;;;;;1.75;1.50;;;20.70;54.20;;;;;;4961581;28;20035;-89
2022/08/09 05:04:07;;;;;;;1.50;1.40;;;20.70;54.20;;;;;;4980932;28;20084;-89
2022/08/09 05:06:32;;;;;;;2.00;1.45;;;20.70;54.20;;;;;;4990755;28;20046;-87
2022/08/09 05:08:58;;;;;;;2.15;1.55;;;20.70;54.20;;;;;;4987231;28;20050;-88
2022/08/09 05:11:26;;;;;;;1.63;1.40;;;20.60;54.20;;;;;;4961738;28;20077;-88
2022/08/09 05:13:52;;;;;;;1.67;1.35;;;20.60;54.30;;;;;;4996216;28;20042;-85
2022/08/09 05:16:18;;;;;;;1.55;1.45;;;20.60;54.30;;;;;;4979742;28;20052;-82
2022/08/09 05:18:44;;;;;;;1.77;1.40;;;20.70;54.40;;;;;;4951997;28;20125;-85
2022/08/09 05:21:11;;;;;;;1.95;1.50;;;20.60;54.40;;;;;;5009694;28;20084;-86
2022/08/09 05:23:36;;;;;;;1.73;1.45;;;20.60;54.50;;;;;;4978238;28;20105;-86
2022/08/09 05:26:02;;;;;;;1.58;1.48;;;20.60;54.50;;;;;;4991835;28;20514;-87
2022/08/09 05:28:28;;;;;;;2.22;1.75;;;20.60;54.50;;;;;;4984203;28;20034;-86
2022/08/09 05:30:54;;;;;;;2.72;1.70;;;20.60;54.60;;;;;;4958269;28;20034;-87
2022/08/09 05:33:19;;;;;;;2.20;1.60;;;20.60;54.60;;;;;;4962377;28;20031;-86
2022/08/09 05:35:45;;;;;;;2.90;1.80;;;20.60;54.60;;;;;;5013221;28;20107;-85
2022/08/09 05:38:11;;;;;;;2.15;1.50;;;20.60;54.70;;;;;;4966707;28;20105;-87
2022/08/09 05:40:37;;;;;;;2.38;1.70;;;20.60;54.70;;;;;;5006301;28;20429;-88
2022/08/09 05:43:02;;;;;;;1.67;1.52;;;20.50;54.70;;;;;;4946621;28;20803;-85
2022/08/09 05:45:28;;;;;;;2.83;1.50;;;20.50;54.70;;;;;;4991810;28;20129;-88
2022/08/09 05:47:55;;;;;;;2.17;1.73;;;20.50;54.80;;;;;;4999267;28;20029;-85
2022/08/09 05:50:24;;;;;;;1.50;1.40;;;20.50;54.80;;;;;;4995041;28;20109;-86
2022/08/09 05:52:51;;;;;;;1.88;1.60;;;20.50;54.80;;;;;;4984029;28;20019;-85
2022/08/09 05:55:17;;;;;;;2.20;1.58;;;20.50;54.80;;;;;;4992543;28;20034;-82
2022/08/09 05:57:43;;;;;;;1.45;1.35;;;20.50;54.80;;;;;;4991905;28;20045;-86
2022/08/09 06:00:10;;;;;;;2.42;1.77;;;20.50;54.90;;;;;;4977496;28;20026;-86
2022/08/09 06:02:39;;;;;;;1.85;1.70;;;20.50;54.90;;;;;;4997829;28;20026;-84
2022/08/09 06:05:06;;;;;;;1.35;1.25;;;20.50;55.00;;;;;;4973135;28;21437;-85
2022/08/09 06:07:33;;;;;;;2.05;1.80;;;20.50;55.00;;;;;;4986923;28;20588;-86
2022/08/09 06:10:00;;;;;;;1.70;1.60;;;20.50;55.00;;;;;;4992651;28;20037;-85
2022/08/09 06:12:26;;;;;;;2.30;1.75;;;20.50;55.10;;;;;;4998588;28;20033;-86
2022/08/09 06:14:51;;;;;;;1.70;1.50;;;20.50;55.10;;;;;;4998066;28;20036;-87
2022/08/09 06:17:18;;;;;;;1.95;1.60;;;20.50;55.10;;;;;;4960445;28;20049;-85
2022/08/09 06:19:44;;;;;;;1.73;1.55;;;20.50;55.20;;;;;;4986609;28;20029;-88
2022/08/09 06:22:10;;;;;;;1.75;1.50;;;20.50;55.20;;;;;;4960691;28;20034;-87
2022/08/09 06:24:35;;;;;;;1.70;1.55;;;20.50;55.20;;;;;;5004744;28;20025;-87
2022/08/09 06:27:01;;;;;;;2.22;1.70;;;20.50;55.20;;;;;;4968317;28;20045;-86
2022/08/09 06:29:30;;;;;;;1.63;1.52;;;20.50;55.30;;;;;;4983039;28;20479;-86
2022/08/09 06:31:56;;;;;;;1.67;1.45;;;20.50;55.30;;;;;;4984347;28;20104;-87
2022/08/09 06:34:21;;;;;;;2.15;1.58;;;20.50;55.30;;;;;;4991586;28;20605;-89
2022/08/09 06:36:47;;;;;;;1.73;1.60;;;20.50;55.30;;;;;;4997096;28;20521;-87
2022/08/09 06:39:13;;;;;;;1.83;1.52;;;20.50;55.30;;;;;;4985609;28;20092;-87
2022/08/09 06:41:39;;;;;;;1.83;1.40;;;20.50;55.30;;;;;;4997071;28;20111;-86
2022/08/09 06:44:09;;;;;;;2.28;1.75;;;20.50;55.40;;;;;;4983014;28;20165;-87
2022/08/09 06:46:36;;;;;;;1.95;1.63;;;20.50;55.40;;;;;;4996354;28;20058;-87
2022/08/09 06:49:02;;;;;;;1.42;1.33;;;20.50;55.40;;;;;;4984486;28;20034;-87
2022/08/09 06:51:28;;;;;;;2.13;1.40;;;20.50;55.40;;;;;;4987982;28;20026;-86
2022/08/09 06:53:54;;;;;;;1.70;1.48;;;20.50;55.40;;;;;;4998278;28;20030;-85
2022/08/09 06:56:20;;;;;;;1.48;1.35;;;20.50;55.40;;;;;;4994924;28;20080;-87
2022/08/09 06:58:46;;;;;;;1.83;1.40;;;20.60;55.50;;;;;;4969047;28;20038;-86
2022/08/09 07:01:11;;;;;;;2.17;1.42;;;20.60;55.60;;;;;;4963480;28;20432;-87
2022/08/09 07:03:37;;;;;;;1.70;1.48;;;20.60;55.60;;;;;;5019867;28;20037;-86
2022/08/09 07:06:03;;;;;;;2.30;1.60;;;20.60;55.60;;;;;;4983880;28;20133;-87
2022/08/09 07:08:29;;;;;;;1.40;1.30;;;20.50;55.60;;;;;;4979750;28;20107;-88
2022/08/09 07:10:55;;;;;;;1.65;1.38;;;20.60;55.70;;;;;;5002307;28;20029;-86
2022/08/09 07:13:21;;;;;;;1.65;1.50;;;20.60;55.70;;;;;;5020982;28;20035;-86
2022/08/09 07:15:47;;;;;;;1.40;1.30;;;20.60;55.70;;;;;;4971020;28;20041;-87
2022/08/09 07:18:13;;;;;;;1.55;1.25;;;20.60;55.70;;;;;;4986189;28;20029;-87
2022/08/09 07:20:38;;;;;;;1.23;1.13;;;20.60;56.40;;;;;;5000215;28;20061;-86
2022/08/09 07:23:04;;;;;;;1.48;1.38;;;20.60;55.80;;;;;;4996356;28;20106;-87
2022/08/09 07:25:30;;;;;;;2.03;1.48;;;20.60;55.90;;;;;;5014485;28;20533;-87
2022/08/09 07:27:56;;;;;;;1.90;1.30;;;20.60;55.90;;;;;;4988611;28;20023;-86
2022/08/09 07:30:22;;;;;;;1.38;1.27;;;20.60;55.90;;;;;;4986673;28;20030;-86
2022/08/09 07:32:47;;;;;;;1.30;1.20;;;20.60;56.00;;;;;;4966351;28;20052;-87
2022/08/09 07:35:13;;;;;;;1.30;1.20;;;20.70;56.00;;;;;;4980472;28;20049;-85
2022/08/09 07:37:41;;;;;;;1.75;1.35;;;20.70;56.10;;;;;;4980561;28;20364;-86
2022/08/09 07:40:08;;;;;;;1.70;1.58;;;20.60;56.10;;;;;;5005092;28;20033;-87
2022/08/09 07:42:45;;;;;;;1.50;1.30;;;20.70;56.20;;;;;;4958621;28;20389;-86
2022/08/09 07:45:11;;;;;;;1.30;1.20;;;20.70;56.90;;;;;;4980887;28;20128;-86
2022/08/09 07:47:37;;;;;;;1.33;1.23;;;20.70;56.20;;;;;;4986580;28;20613;-88
2022/08/09 07:50:03;;;;;;;1.40;1.10;;;20.70;56.20;;;;;;4986220;28;20053;-86
2022/08/09 07:52:28;;;;;;;2.42;1.40;;;20.70;56.20;;;;;;4981440;28;20089;-85
2022/08/09 07:54:54;;;;;;;1.30;1.20;;;20.80;56.20;;;;;;4991830;28;20080;-83
2022/08/09 07:57:20;;;;;;;1.30;1.20;;;20.80;56.20;;;;;;4981854;28;20030;-87
2022/08/09 07:59:46;;;;;;;1.20;1.10;;;20.80;56.20;;;;;;4982351;28;20804;-87
2022/08/09 08:02:12;;;;;;;1.48;1.23;;;20.80;56.20;;;;;;4972229;28;20021;-88
2022/08/09 08:04:38;;;;;;;1.17;1.08;;;20.90;56.20;;;;;;4981835;28;20034;-86
2022/08/09 08:07:04;;;;;;;1.08;1.08;;;20.90;56.10;;;;;;4977752;28;20045;-87
2022/08/09 08:09:30;;;;;;;1.17;0.98;;;20.90;56.10;;;;;;5000284;28;20021;-89
2022/08/09 08:11:56;;;;;;;2.15;1.20;;;21.00;56.10;;;;;;4992900;28;20038;-88
2022/08/09 08:14:22;;;;;;;1.55;1.02;;;21.00;56.00;;;;;;4969085;28;20026;-86
2022/08/09 08:16:48;;;;;;;1.40;1.23;;;21.10;56.00;;;;;;5012757;28;20033;-88
2022/08/09 08:19:13;;;;;;;1.80;1.10;;;21.10;55.90;;;;;;4980309;28;20025;-86
2022/08/09 08:21:39;;;;;;;1.30;0.90;;;21.10;55.80;;;;;;4977413;28;20033;-86
2022/08/09 08:24:05;;;;;;;0.90;0.90;;;21.20;55.70;;;;;;4999262;28;20053;-87
2022/08/09 08:26:32;;;;;;;1.85;1.10;;;21.30;55.70;;;;;;4978567;28;20616;-87
2022/08/09 08:28:58;;;;;;;1.67;1.00;;;21.30;55.60;;;;;;4962823;28;20144;-86
2022/08/09 08:31:23;;;;;;;1.25;1.00;;;21.40;55.50;;;;;;4966566;28;20140;-88
2022/08/09 08:33:49;;;;;;;1.20;1.00;;;21.40;55.40;;;;;;5004888;28;20557;-87
2022/08/09 08:36:15;;;;;;;1.13;1.08;;;21.50;55.40;;;;;;4983226;28;20033;-89
2022/08/09 08:38:41;;;;;;;0.93;0.90;;;21.60;55.30;;;;;;4975622;28;20485;-89
2022/08/09 08:41:07;;;;;;;2.25;1.00;;;21.60;55.20;;;;;;4992273;28;20035;-88
2022/08/09 08:43:33;;;;;;;1.20;0.90;;;21.70;55.10;;;;;;4964412;28;20045;-85
2022/08/09 08:46:06;;;;;;;0.93;0.90;;;21.80;55.00;;;;;;4982431;28;20051;-87
2022/08/09 08:48:33;;;;;;;1.58;1.42;;;21.90;55.00;;;;;;4955229;28;20053;-88
2022/08/09 08:51:01;;;;;;;1.02;0.90;;;21.90;54.80;;;;;;4978898;28;20050;-85
2022/08/09 08:53:28;;;;;;;1.08;0.98;;;22.00;54.80;;;;;;5000813;28;20030;-87
2022/08/09 08:55:54;;;;;;;0.88;0.80;;;22.10;54.70;;;;;;4956015;28;20065;-90
2022/08/09 08:58:21;;;;;;;1.42;0.90;;;22.20;54.60;;;;;;4973008;28;20801;-89
2022/08/09 09:00:47;;;;;;;0.88;0.88;;;22.30;54.50;;;;;;4962451;28;20534;-88
2022/08/09 09:03:15;;;;;;;1.42;0.95;;;22.30;54.40;;;;;;4968875;28;20065;-89
2022/08/09 09:05:41;;;;;;;0.90;0.90;;;22.40;54.30;;;;;;4964443;28;20034;-86
2022/08/09 09:08:08;;;;;;;1.23;0.88;;;22.50;54.30;;;;;;4950053;28;20030;-87
2022/08/09 09:10:35;;;;;;;1.38;1.00;;;22.60;54.20;;;;;;4961905;28;20039;-87
2022/08/09 09:13:01;;;;;;;1.10;1.00;;;22.70;54.10;;;;;;4956648;28;20034;-85
2022/08/09 09:15:27;;;;;;;0.80;0.80;;;22.80;54.00;;;;;;4965887;28;20026;-87
2022/08/09 09:17:53;;;;;;;1.02;0.80;;;22.90;53.90;;;;;;4962793;28;20032;-83
2022/08/09 09:20:21;;;;;;;0.77;0.77;;;23.00;53.80;;;;;;4960972;28;20066;-87
2022/08/09 09:22:57;;;;;;;0.73;0.73;;;23.00;53.70;;;;;;4976907;28;20034;-89
2022/08/09 09:25:34;;;;;;;0.80;0.80;;;23.10;53.70;;;;;;4958867;28;20027;-86
2022/08/09 09:28:01;;;;;;;0.70;0.70;;;23.20;53.70;;;;;;4955966;28;20108;-86
2022/08/09 09:30:28;;;;;;;0.60;0.60;;;23.30;53.50;;;;;;4993368;28;20022;-88
2022/08/09 09:33:11;;;;;;;1.60;1.10;;;23.40;53.50;;;;;;4961315;28;20026;-87
2022/08/09 09:35:59;;;;;;;1.08;0.90;;;23.50;53.50;;;;;;4985666;28;20038;-88
2022/08/09 09:38:55;;;;;;;1.13;0.80;;;23.60;53.40;;;;;;4956892;28;20037;-86
2022/08/09 09:41:26;;;;;;;1.05;1.00;;;23.70;53.40;;;;;;4990283;28;20038;-86
2022/08/09 09:43:54;;;;;;;0.80;0.80;;;23.80;53.20;;;;;;4967169;28;20035;-85
2022/08/09 09:46:26;;;;;;;0.70;0.70;;;23.90;53.10;;;;;;4987779;28;20037;-87
2022/08/09 09:49:06;;;;;;;0.80;0.80;;;24.00;53.10;;;;;;4993878;28;20042;-87
2022/08/09 09:51:34;;;;;;;1.10;0.80;;;24.10;53.10;;;;;;4995299;28;20068;-86
2022/08/09 09:54:07;;;;;;;0.65;0.65;;;24.20;53.00;;;;;;4996683;28;20152;-86
2022/08/09 09:56:35;;;;;;;0.57;0.57;;;24.30;53.00;;;;;;5010598;28;20035;-88
2022/08/09 09:59:01;;;;;;;0.93;0.70;;;24.40;52.90;;;;;;4994858;28;20457;-87
2022/08/09 10:01:28;;;;;;;0.90;0.90;;;24.50;52.80;;;;;;5009073;28;20034;-88
2022/08/09 10:03:54;;;;;;;1.23;0.70;;;24.60;52.80;;;;;;4984843;28;20057;-88
2022/08/09 10:06:20;;;;;;;0.70;0.70;;;24.70;52.70;;;;;;4991421;28;20089;-87
2022/08/09 10:08:49;;;;;;;1.25;0.80;;;24.80;52.70;;;;;;5001558;28;20116;-87
2022/08/09 10:11:24;;;;;;;0.77;0.77;;;24.90;52.60;;;;;;4977758;28;20495;-87
2022/08/09 10:13:52;;;;;;;1.02;0.63;;;25.00;52.60;;;;;;4991685;28;20066;-87
2022/08/09 10:16:30;;;;;;;0.70;0.70;;;25.10;52.40;;;;;;5012942;28;20120;-88
2022/08/09 10:18:59;;;;;;;0.90;0.70;;;25.20;52.50;;;;;;5006093;28;20024;-87
2022/08/09 10:21:24;;;;;;;0.60;0.60;;;25.30;52.30;;;;;;4990451;28;20026;-86
2022/08/09 10:23:51;;;;;;;0.60;0.60;;;25.40;52.30;;;;;;4992866;28;20476;-86
2022/08/09 10:26:20;;;;;;;0.60;0.60;;;25.50;52.20;;;;;;4977542;28;20042;-86
2022/08/09 10:28:46;;;;;;;0.80;0.80;;;25.60;52.20;;;;;;5012166;28;20033;-91
2022/08/09 10:31:13;;;;;;;0.95;0.73;;;25.70;52.10;;;;;;4975398;28;20354;-85
2022/08/09 10:33:40;;;;;;;0.85;0.65;;;25.80;52.00;;;;;;5009826;28;20081;-84
2022/08/09 10:36:08;;;;;;;0.68;0.68;;;25.80;51.90;;;;;;4987486;28;20052;-84
2022/08/09 10:38:35;;;;;;;0.70;0.70;;;26.00;51.90;;;;;;4996300;28;20029;-84
2022/08/09 10:41:02;;;;;;;0.75;0.70;;;26.10;51.80;;;;;;4978911;28;20030;-83
2022/08/09 10:43:28;;;;;;;0.80;0.80;;;26.10;51.70;;;;;;4981262;28;20026;-84
2022/08/09 10:45:54;;;;;;;0.73;0.73;;;26.20;51.60;;;;;;4961381;28;20084;-84
2022/08/09 10:48:40;;;;;;;0.70;0.70;;;26.30;51.50;;;;;;5003955;28;20026;-85
2022/08/09 10:51:48;;;;;;;0.73;0.60;;;26.40;51.50;;;;;;4992497;28;20022;-84
2022/08/09 10:54:14;;;;;;;0.60;0.60;;;26.50;51.60;;;;;;4932380;29;20068;-83
2022/08/09 10:56:42;;;;;;;0.70;0.70;;;26.60;51.30;;;;;;4982843;28;20042;-83
2022/08/09 10:59:27;;;;;;;0.93;0.70;;;26.70;51.30;;;;;;4976198;28;20475;-84
2022/08/09 11:01:54;;;;;;;0.60;0.60;;;26.70;51.30;;;;;;4974437;28;20034;-88
2022/08/09 11:04:22;;;;;;;1.05;0.70;;;26.80;51.10;;;;;;4999805;28;20048;-86
2022/08/09 11:07:08;;;;;;;0.60;0.60;;;26.90;51.00;;;;;;4974674;28;20034;-86
2022/08/09 11:09:37;;;;;;;0.60;0.60;;;27.00;51.10;;;;;;4991007;28;20021;-85
2022/08/09 11:12:27;;;;;;;0.70;0.70;;;27.00;51.00;;;;;;5006936;28;20037;-91
2022/08/09 11:15:00;;;;;;;1.40;0.77;;;27.10;51.00;;;;;;4995070;28;20466;-85
2022/08/09 11:17:26;;;;;;;0.98;0.63;;;27.20;51.00;;;;;;4973797;28;20026;-85
2022/08/09 11:19:57;;;;;;;0.52;0.52;;;27.20;50.90;;;;;;4996136;28;20072;-87
2022/08/09 11:22:43;;;;;;;0.50;0.50;;;27.30;50.90;;;;;;5007836;28;20051;-88
2022/08/09 11:25:16;;;;;;;0.55;0.55;;;27.30;50.90;;;;;;4992338;28;20068;-86
2022/08/09 11:27:50;;;;;;;0.60;0.60;;;27.30;50.80;;;;;;4995056;28;20037;-87
2022/08/09 11:30:31;;;;;;;0.50;0.50;;;27.40;50.90;;;;;;4992215;28;20075;-87
2022/08/09 11:33:18;;;;;;;0.60;0.60;;;27.40;50.90;;;;;;4992864;28;20026;-86
2022/08/09 11:35:58;;;;;;;0.68;0.60;;;27.50;50.90;;;;;;4993063;28;20053;-87
2022/08/09 11:38:25;;;;;;;0.52;0.52;;;27.50;51.00;;;;;;4991583;28;20026;-88
2022/08/09 11:40:52;;;;;;;1.10;0.80;;;27.50;50.90;;;;;;4998634;28;20030;-88
2022/08/09 11:43:26;;;;;;;1.27;0.70;;;27.50;50.90;;;;;;4994159;28;20105;-90
2022/08/09 11:46:04;;;;;;;0.47;0.40;;;27.50;50.90;;;;;;4991042;28;20060;-86
2022/08/09 11:48:32;;;;;;;0.77;0.60;;;27.60;51.00;;;;;;4990858;28;20046;-85
2022/08/09 11:50:58;;;;;;;0.55;0.55;;;27.60;50.90;;;;;;4977604;28;20052;-87
2022/08/09 11:53:33;;;;;;;0.60;0.60;;;27.60;51.00;;;;;;4975814;28;20030;-89
2022/08/09 11:56:21;;;;;;;0.50;0.50;;;27.60;51.20;;;;;;5007548;28;20065;-88
2022/08/09 11:58:52;;;;;;;0.70;0.50;;;27.70;51.20;;;;;;4994708;28;20493;-88
2022/08/09 12:01:29;;;;;;;0.90;0.60;;;27.70;51.10;;;;;;4996779;28;20109;-87
2022/08/09 12:04:00;;;;;;;1.25;0.60;;;27.70;51.20;;;;;;5005403;28;20029;-87
2022/08/09 12:06:26;;;;;;;0.57;0.57;;;27.70;51.10;;;;;;4997019;28;20060;-84
2022/08/09 12:08:55;;;;;;;0.60;0.60;;;27.70;51.10;;;;;;4964422;28;20026;-88
2022/08/09 12:11:23;;;;;;;0.82;0.63;;;27.70;51.00;;;;;;4997017;28;20033;-86
2022/08/09 12:13:51;;;;;;;0.50;0.50;;;27.80;51.10;;;;;;4977997;28;20031;-87
2022/08/09 12:16:28;;;;;;;0.60;0.60;;;27.80;51.10;;;;;;4986270;28;20030;-88
2022/08/09 12:18:54;;;;;;;0.47;0.47;;;27.80;51.10;;;;;;4993810;28;20353;-85
2022/08/09 12:21:35;;;;;;;0.60;0.60;;;27.80;51.00;;;;;;4963025;28;20026;-87
2022/08/09 12:24:03;;;;;;;0.50;0.50;;;27.80;51.10;;;;;;4981593;28;20065;-84
2022/08/09 12:26:41;;;;;;;0.45;0.45;;;27.80;50.90;;;;;;4992796;28;20026;-85
2022/08/09 12:29:07;;;;;;;0.60;0.60;;;27.80;51.60;;;;;;4987253;28;20033;-87
2022/08/09 12:31:34;;;;;;;0.70;0.60;;;27.80;50.70;;;;;;4977330;28;20076;-86
2022/08/09 12:34:00;;;;;;;0.57;0.50;;;27.80;50.70;;;;;;4993402;28;20030;-85
2022/08/09 12:36:25;;;;;;;0.75;0.60;;;27.80;50.60;;;;;;4981605;28;20485;-86
2022/08/09 12:38:53;;;;;;;0.80;0.60;;;27.90;50.60;;;;;;5016009;28;20033;-88
2022/08/09 12:41:32;;;;;;;0.50;0.50;;;27.90;50.60;;;;;;4986289;28;20542;-87
2022/08/09 12:43:59;;;;;;;0.60;0.55;;;27.80;50.40;;;;;;4980641;28;20061;-86
2022/08/09 12:46:25;;;;;;;0.63;0.63;;;27.80;50.70;;;;;;4974934;28;20521;-87
2022/08/09 12:48:54;;;;;;;0.45;0.45;;;27.80;50.30;;;;;;4980216;28;20537;-85
2022/08/09 12:51:22;;;;;;;0.63;0.60;;;27.90;50.30;;;;;;4983649;28;20458;-87
2022/08/09 12:53:59;;;;;;;0.60;0.60;;;27.90;50.20;;;;;;4961245;28;20487;-83
2022/08/09 12:56:26;;;;;;;0.82;0.50;;;27.90;50.20;;;;;;4983942;28;20549;-84
2022/08/09 12:59:12;;;;;;;0.63;0.60;;;27.90;50.10;;;;;;4974968;28;20026;-91
2022/08/09 13:01:46;;;;;;;0.88;0.50;;;27.90;50.20;;;;;;4992432;28;20105;-92